sensor_id;sensor_type;location;lat;lon;timestamp;P1;durP1;ratioP1;P2;durP2;ratioP2
39344;SDS011;25061;51.954;6.996;2022-12-18T00:01:23;39.43;;;13.83;;
39344;SDS011;25061;51.954;6.996;2022-12-18T00:04:00;42.43;;;12.93;;
39344;SDS011;25061;51.954;6.996;2022-12-18T00:06:30;42.50;;;14.03;;
39344;SDS011;25061;51.954;6.996;2022-12-18T00:08:56;38.67;;;13.13;;
39344;SDS011;25061;51.954;6.996;2022-12-18T00:11:23;41.17;;;15.07;;
39344;SDS011;25061;51.954;6.996;2022-12-18T00:13:50;42.10;;;16.77;;
39344;SDS011;25061;51.954;6.996;2022-12-18T00:16:17;42.37;;;17.10;;
39344;SDS011;25061;51.954;6.996;2022-12-18T00:18:45;41.90;;;15.77;;
39344;SDS011;25061;51.954;6.996;2022-12-18T00:21:12;44.07;;;15.83;;
39344;SDS011;25061;51.954;6.996;2022-12-18T00:23:38;46.40;;;16.03;;
39344;SDS011;25061;51.954;6.996;2022-12-18T00:26:07;43.20;;;14.07;;
39344;SDS011;25061;51.954;6.996;2022-12-18T00:28:37;36.60;;;13.23;;
39344;SDS011;25061;51.954;6.996;2022-12-18T00:31:03;43.70;;;16.57;;
39344;SDS011;25061;51.954;6.996;2022-12-18T00:33:31;34.17;;;12.53;;
39344;SDS011;25061;51.954;6.996;2022-12-18T00:36:01;37.17;;;13.97;;
39344;SDS011;25061;51.954;6.996;2022-12-18T00:38:27;42.13;;;13.47;;
39344;SDS011;25061;51.954;6.996;2022-12-18T00:40:53;31.67;;;13.27;;
39344;SDS011;25061;51.954;6.996;2022-12-18T00:43:18;38.23;;;14.17;;
39344;SDS011;25061;51.954;6.996;2022-12-18T00:45:44;44.23;;;15.17;;
39344;SDS011;25061;51.954;6.996;2022-12-18T00:48:10;37.10;;;13.57;;
39344;SDS011;25061;51.954;6.996;2022-12-18T00:50:35;31.70;;;12.57;;
39344;SDS011;25061;51.954;6.996;2022-12-18T00:53:01;33.57;;;14.67;;
39344;SDS011;25061;51.954;6.996;2022-12-18T00:55:26;35.43;;;13.30;;
39344;SDS011;25061;51.954;6.996;2022-12-18T00:57:52;38.80;;;14.03;;
39344;SDS011;25061;51.954;6.996;2022-12-18T01:00:18;36.37;;;13.73;;
39344;SDS011;25061;51.954;6.996;2022-12-18T01:02:43;37.77;;;13.60;;
39344;SDS011;25061;51.954;6.996;2022-12-18T01:05:10;35.10;;;12.23;;
39344;SDS011;25061;51.954;6.996;2022-12-18T01:07:37;36.80;;;12.83;;
39344;SDS011;25061;51.954;6.996;2022-12-18T01:10:03;29.77;;;12.17;;
39344;SDS011;25061;51.954;6.996;2022-12-18T01:12:30;30.63;;;11.77;;
39344;SDS011;25061;51.954;6.996;2022-12-18T01:14:56;32.37;;;12.20;;
39344;SDS011;25061;51.954;6.996;2022-12-18T01:17:23;31.83;;;12.53;;
39344;SDS011;25061;51.954;6.996;2022-12-18T01:19:48;30.27;;;12.93;;
39344;SDS011;25061;51.954;6.996;2022-12-18T01:22:14;31.07;;;12.27;;
39344;SDS011;25061;51.954;6.996;2022-12-18T01:24:39;29.13;;;11.60;;
39344;SDS011;25061;51.954;6.996;2022-12-18T01:27:05;31.93;;;11.83;;
39344;SDS011;25061;51.954;6.996;2022-12-18T01:29:31;27.20;;;12.27;;
39344;SDS011;25061;51.954;6.996;2022-12-18T01:31:56;28.27;;;11.90;;
39344;SDS011;25061;51.954;6.996;2022-12-18T01:34:22;29.70;;;11.03;;
39344;SDS011;25061;51.954;6.996;2022-12-18T01:36:49;32.40;;;11.50;;
39344;SDS011;25061;51.954;6.996;2022-12-18T01:39:17;30.00;;;12.40;;
39344;SDS011;25061;51.954;6.996;2022-12-18T01:41:42;27.47;;;10.70;;
39344;SDS011;25061;51.954;6.996;2022-12-18T01:49:55;26.07;;;11.10;;
39344;SDS011;25061;51.954;6.996;2022-12-18T01:52:23;28.47;;;11.50;;
39344;SDS011;25061;51.954;6.996;2022-12-18T01:54:53;27.93;;;12.70;;
39344;SDS011;25061;51.954;6.996;2022-12-18T01:57:19;24.47;;;10.50;;
39344;SDS011;25061;51.954;6.996;2022-12-18T01:59:45;27.63;;;12.23;;
39344;SDS011;25061;51.954;6.996;2022-12-18T02:02:14;30.07;;;11.87;;
39344;SDS011;25061;51.954;6.996;2022-12-18T02:04:41;27.33;;;10.47;;
39344;SDS011;25061;51.954;6.996;2022-12-18T02:07:09;27.00;;;11.53;;
39344;SDS011;25061;51.954;6.996;2022-12-18T02:09:41;27.73;;;11.97;;
39344;SDS011;25061;51.954;6.996;2022-12-18T02:12:57;25.93;;;11.30;;
39344;SDS011;25061;51.954;6.996;2022-12-18T02:15:28;25.13;;;10.13;;
39344;SDS011;25061;51.954;6.996;2022-12-18T02:18:22;28.90;;;10.73;;
39344;SDS011;25061;51.954;6.996;2022-12-18T02:21:36;29.47;;;10.10;;
39344;SDS011;25061;51.954;6.996;2022-12-18T02:23:56;25.27;;;9.93;;
39344;SDS011;25061;51.954;6.996;2022-12-18T02:29:54;27.67;;;11.47;;
39344;SDS011;25061;51.954;6.996;2022-12-18T02:32:05;28.03;;;9.10;;
39344;SDS011;25061;51.954;6.996;2022-12-18T02:34:35;24.60;;;9.67;;
39344;SDS011;25061;51.954;6.996;2022-12-18T02:37:04;27.20;;;11.33;;
39344;SDS011;25061;51.954;6.996;2022-12-18T02:39:33;29.23;;;11.37;;
39344;SDS011;25061;51.954;6.996;2022-12-18T02:42:01;26.20;;;10.33;;
39344;SDS011;25061;51.954;6.996;2022-12-18T02:44:32;24.90;;;11.40;;
39344;SDS011;25061;51.954;6.996;2022-12-18T02:46:59;27.67;;;10.97;;
39344;SDS011;25061;51.954;6.996;2022-12-18T02:52:00;30.65;;;12.07;;
39344;SDS011;25061;51.954;6.996;2022-12-18T02:57:34;23.53;;;10.13;;
39344;SDS011;25061;51.954;6.996;2022-12-18T03:00:10;26.03;;;10.23;;
39344;SDS011;25061;51.954;6.996;2022-12-18T03:05:28;24.73;;;10.70;;
39344;SDS011;25061;51.954;6.996;2022-12-18T03:08:03;26.87;;;11.90;;
39344;SDS011;25061;51.954;6.996;2022-12-18T03:10:34;23.43;;;9.57;;
39344;SDS011;25061;51.954;6.996;2022-12-18T03:13:08;25.20;;;10.03;;
39344;SDS011;25061;51.954;6.996;2022-12-18T03:15:42;25.33;;;11.23;;
39344;SDS011;25061;51.954;6.996;2022-12-18T03:18:16;22.15;;;9.20;;
39344;SDS011;25061;51.954;6.996;2022-12-18T03:20:47;21.87;;;9.37;;
39344;SDS011;25061;51.954;6.996;2022-12-18T03:23:15;29.40;;;11.87;;
39344;SDS011;25061;51.954;6.996;2022-12-18T03:25:45;26.02;;;11.30;;
39344;SDS011;25061;51.954;6.996;2022-12-18T03:28:14;25.03;;;9.77;;
39344;SDS011;25061;51.954;6.996;2022-12-18T03:30:44;23.67;;;10.70;;
39344;SDS011;25061;51.954;6.996;2022-12-18T03:33:16;23.87;;;9.97;;
39344;SDS011;25061;51.954;6.996;2022-12-18T03:35:50;24.60;;;10.13;;
39344;SDS011;25061;51.954;6.996;2022-12-18T03:38:15;24.57;;;10.47;;
39344;SDS011;25061;51.954;6.996;2022-12-18T03:40:53;27.73;;;11.03;;
39344;SDS011;25061;51.954;6.996;2022-12-18T03:46:20;23.60;;;9.37;;
39344;SDS011;25061;51.954;6.996;2022-12-18T03:49:07;25.03;;;9.60;;
39344;SDS011;25061;51.954;6.996;2022-12-18T03:54:08;25.67;;;10.67;;
39344;SDS011;25061;51.954;6.996;2022-12-18T03:56:40;21.53;;;9.40;;
39344;SDS011;25061;51.954;6.996;2022-12-18T03:59:11;20.20;;;10.30;;
39344;SDS011;25061;51.954;6.996;2022-12-18T04:01:39;23.20;;;8.87;;
39344;SDS011;25061;51.954;6.996;2022-12-18T04:04:07;25.80;;;9.97;;
39344;SDS011;25061;51.954;6.996;2022-12-18T04:06:35;22.30;;;9.43;;
39344;SDS011;25061;51.954;6.996;2022-12-18T04:09:02;26.57;;;10.30;;
39344;SDS011;25061;51.954;6.996;2022-12-18T04:11:28;25.07;;;9.80;;
39344;SDS011;25061;51.954;6.996;2022-12-18T04:13:57;23.37;;;10.00;;
39344;SDS011;25061;51.954;6.996;2022-12-18T04:16:24;23.50;;;9.90;;
39344;SDS011;25061;51.954;6.996;2022-12-18T04:18:50;24.33;;;9.57;;
39344;SDS011;25061;51.954;6.996;2022-12-18T04:21:16;29.23;;;10.70;;
39344;SDS011;25061;51.954;6.996;2022-12-18T04:23:42;23.67;;;9.77;;
39344;SDS011;25061;51.954;6.996;2022-12-18T04:26:07;23.27;;;9.20;;
39344;SDS011;25061;51.954;6.996;2022-12-18T04:28:33;24.07;;;9.43;;
39344;SDS011;25061;51.954;6.996;2022-12-18T04:30:58;22.33;;;9.43;;
39344;SDS011;25061;51.954;6.996;2022-12-18T04:33:24;24.07;;;10.43;;
39344;SDS011;25061;51.954;6.996;2022-12-18T04:35:49;24.17;;;9.80;;
39344;SDS011;25061;51.954;6.996;2022-12-18T04:38:15;22.73;;;10.10;;
39344;SDS011;25061;51.954;6.996;2022-12-18T04:40:41;24.00;;;10.20;;
39344;SDS011;25061;51.954;6.996;2022-12-18T04:43:06;23.90;;;9.63;;
39344;SDS011;25061;51.954;6.996;2022-12-18T04:45:32;21.13;;;8.03;;
39344;SDS011;25061;51.954;6.996;2022-12-18T04:47:58;20.13;;;8.83;;
39344;SDS011;25061;51.954;6.996;2022-12-18T04:50:24;20.13;;;9.60;;
39344;SDS011;25061;51.954;6.996;2022-12-18T04:52:50;21.97;;;9.10;;
39344;SDS011;25061;51.954;6.996;2022-12-18T04:55:16;25.20;;;10.00;;
39344;SDS011;25061;51.954;6.996;2022-12-18T04:57:41;24.97;;;10.20;;
39344;SDS011;25061;51.954;6.996;2022-12-18T05:00:07;20.23;;;8.27;;
39344;SDS011;25061;51.954;6.996;2022-12-18T05:02:33;18.87;;;8.40;;
39344;SDS011;25061;51.954;6.996;2022-12-18T05:04:59;21.30;;;8.43;;
39344;SDS011;25061;51.954;6.996;2022-12-18T05:07:24;18.13;;;8.00;;
39344;SDS011;25061;51.954;6.996;2022-12-18T05:09:50;18.50;;;7.77;;
39344;SDS011;25061;51.954;6.996;2022-12-18T05:12:15;18.70;;;8.17;;
39344;SDS011;25061;51.954;6.996;2022-12-18T05:14:41;16.97;;;8.17;;
39344;SDS011;25061;51.954;6.996;2022-12-18T05:17:06;19.43;;;7.90;;
39344;SDS011;25061;51.954;6.996;2022-12-18T05:19:32;18.77;;;8.77;;
39344;SDS011;25061;51.954;6.996;2022-12-18T05:21:57;19.07;;;7.33;;
39344;SDS011;25061;51.954;6.996;2022-12-18T05:24:23;18.70;;;7.33;;
39344;SDS011;25061;51.954;6.996;2022-12-18T05:26:49;22.50;;;6.93;;
39344;SDS011;25061;51.954;6.996;2022-12-18T05:29:14;19.10;;;8.27;;
39344;SDS011;25061;51.954;6.996;2022-12-18T05:31:40;16.17;;;7.00;;
39344;SDS011;25061;51.954;6.996;2022-12-18T05:34:05;15.60;;;6.23;;
39344;SDS011;25061;51.954;6.996;2022-12-18T05:36:31;16.40;;;6.43;;
39344;SDS011;25061;51.954;6.996;2022-12-18T05:38:57;15.17;;;5.97;;
39344;SDS011;25061;51.954;6.996;2022-12-18T05:41:22;17.17;;;6.80;;
39344;SDS011;25061;51.954;6.996;2022-12-18T05:43:48;16.83;;;6.60;;
39344;SDS011;25061;51.954;6.996;2022-12-18T05:46:14;16.67;;;7.87;;
39344;SDS011;25061;51.954;6.996;2022-12-18T05:48:42;16.53;;;7.23;;
39344;SDS011;25061;51.954;6.996;2022-12-18T05:51:12;19.07;;;7.17;;
39344;SDS011;25061;51.954;6.996;2022-12-18T05:53:43;18.63;;;7.40;;
39344;SDS011;25061;51.954;6.996;2022-12-18T05:56:10;20.30;;;7.23;;
39344;SDS011;25061;51.954;6.996;2022-12-18T05:58:41;16.92;;;6.63;;
39344;SDS011;25061;51.954;6.996;2022-12-18T06:01:11;16.27;;;7.47;;
39344;SDS011;25061;51.954;6.996;2022-12-18T06:03:41;20.03;;;8.93;;
39344;SDS011;25061;51.954;6.996;2022-12-18T06:06:17;14.93;;;6.50;;
39344;SDS011;25061;51.954;6.996;2022-12-18T06:08:44;17.17;;;6.53;;
39344;SDS011;25061;51.954;6.996;2022-12-18T06:11:10;17.80;;;8.23;;
39344;SDS011;25061;51.954;6.996;2022-12-18T06:13:36;17.60;;;6.50;;
39344;SDS011;25061;51.954;6.996;2022-12-18T06:16:03;22.43;;;8.50;;
39344;SDS011;25061;51.954;6.996;2022-12-18T06:18:29;17.30;;;7.50;;
39344;SDS011;25061;51.954;6.996;2022-12-18T06:20:56;19.77;;;8.73;;
39344;SDS011;25061;51.954;6.996;2022-12-18T06:23:22;16.93;;;7.93;;
39344;SDS011;25061;51.954;6.996;2022-12-18T06:25:47;16.47;;;7.20;;
39344;SDS011;25061;51.954;6.996;2022-12-18T06:28:13;16.60;;;6.93;;
39344;SDS011;25061;51.954;6.996;2022-12-18T06:30:39;17.33;;;7.30;;
39344;SDS011;25061;51.954;6.996;2022-12-18T06:33:04;14.70;;;6.80;;
39344;SDS011;25061;51.954;6.996;2022-12-18T06:35:31;20.60;;;8.07;;
39344;SDS011;25061;51.954;6.996;2022-12-18T06:37:57;22.33;;;8.53;;
39344;SDS011;25061;51.954;6.996;2022-12-18T06:40:22;17.23;;;7.47;;
39344;SDS011;25061;51.954;6.996;2022-12-18T06:42:48;20.40;;;7.33;;
39344;SDS011;25061;51.954;6.996;2022-12-18T06:45:13;18.57;;;7.53;;
39344;SDS011;25061;51.954;6.996;2022-12-18T06:47:39;19.47;;;8.10;;
39344;SDS011;25061;51.954;6.996;2022-12-18T06:50:05;21.60;;;7.83;;
39344;SDS011;25061;51.954;6.996;2022-12-18T06:52:31;17.10;;;7.20;;
39344;SDS011;25061;51.954;6.996;2022-12-18T06:54:57;17.03;;;7.53;;
39344;SDS011;25061;51.954;6.996;2022-12-18T06:57:22;19.33;;;7.60;;
39344;SDS011;25061;51.954;6.996;2022-12-18T06:59:48;15.77;;;6.23;;
39344;SDS011;25061;51.954;6.996;2022-12-18T07:02:15;18.57;;;7.67;;
39344;SDS011;25061;51.954;6.996;2022-12-18T07:04:40;18.87;;;7.20;;
39344;SDS011;25061;51.954;6.996;2022-12-18T07:07:06;17.00;;;7.60;;
39344;SDS011;25061;51.954;6.996;2022-12-18T07:09:31;17.53;;;6.77;;
39344;SDS011;25061;51.954;6.996;2022-12-18T07:11:57;16.67;;;7.07;;
39344;SDS011;25061;51.954;6.996;2022-12-18T07:14:22;17.13;;;7.33;;
39344;SDS011;25061;51.954;6.996;2022-12-18T07:16:48;18.50;;;7.33;;
39344;SDS011;25061;51.954;6.996;2022-12-18T07:19:13;18.67;;;7.77;;
39344;SDS011;25061;51.954;6.996;2022-12-18T07:21:39;19.67;;;7.83;;
39344;SDS011;25061;51.954;6.996;2022-12-18T07:24:05;18.83;;;7.93;;
39344;SDS011;25061;51.954;6.996;2022-12-18T07:26:31;17.40;;;8.03;;
39344;SDS011;25061;51.954;6.996;2022-12-18T07:28:57;17.77;;;8.20;;
39344;SDS011;25061;51.954;6.996;2022-12-18T07:31:23;18.63;;;7.53;;
39344;SDS011;25061;51.954;6.996;2022-12-18T07:33:49;15.57;;;7.17;;
39344;SDS011;25061;51.954;6.996;2022-12-18T07:36:15;27.47;;;11.07;;
39344;SDS011;25061;51.954;6.996;2022-12-18T07:38:42;23.50;;;9.23;;
39344;SDS011;25061;51.954;6.996;2022-12-18T07:41:09;23.83;;;10.93;;
39344;SDS011;25061;51.954;6.996;2022-12-18T07:43:36;20.70;;;9.93;;
39344;SDS011;25061;51.954;6.996;2022-12-18T07:46:03;19.60;;;9.10;;
39344;SDS011;25061;51.954;6.996;2022-12-18T07:48:29;18.20;;;8.13;;
39344;SDS011;25061;51.954;6.996;2022-12-18T07:50:59;23.77;;;10.53;;
39344;SDS011;25061;51.954;6.996;2022-12-18T07:53:25;20.63;;;10.47;;
39344;SDS011;25061;51.954;6.996;2022-12-18T07:55:58;38.17;;;14.90;;
39344;SDS011;25061;51.954;6.996;2022-12-18T07:58:24;20.53;;;8.80;;
39344;SDS011;25061;51.954;6.996;2022-12-18T08:00:50;44.43;;;16.20;;
39344;SDS011;25061;51.954;6.996;2022-12-18T08:03:15;59.03;;;24.00;;
39344;SDS011;25061;51.954;6.996;2022-12-18T08:05:41;25.70;;;13.90;;
39344;SDS011;25061;51.954;6.996;2022-12-18T08:08:06;18.97;;;8.37;;
39344;SDS011;25061;51.954;6.996;2022-12-18T08:10:32;17.80;;;7.63;;
39344;SDS011;25061;51.954;6.996;2022-12-18T08:12:57;17.67;;;7.63;;
39344;SDS011;25061;51.954;6.996;2022-12-18T08:15:23;16.40;;;7.40;;
39344;SDS011;25061;51.954;6.996;2022-12-18T08:17:48;18.13;;;7.50;;
39344;SDS011;25061;51.954;6.996;2022-12-18T08:20:14;18.83;;;7.50;;
39344;SDS011;25061;51.954;6.996;2022-12-18T08:22:41;13.47;;;5.60;;
39344;SDS011;25061;51.954;6.996;2022-12-18T08:25:07;15.17;;;6.37;;
39344;SDS011;25061;51.954;6.996;2022-12-18T08:27:33;18.67;;;6.63;;
39344;SDS011;25061;51.954;6.996;2022-12-18T08:29:59;14.63;;;6.77;;
39344;SDS011;25061;51.954;6.996;2022-12-18T08:32:26;15.13;;;6.03;;
39344;SDS011;25061;51.954;6.996;2022-12-18T08:34:52;15.97;;;6.73;;
39344;SDS011;25061;51.954;6.996;2022-12-18T08:37:18;16.03;;;6.07;;
39344;SDS011;25061;51.954;6.996;2022-12-18T08:39:44;12.63;;;5.63;;
39344;SDS011;25061;51.954;6.996;2022-12-18T08:42:10;15.23;;;6.33;;
39344;SDS011;25061;51.954;6.996;2022-12-18T08:44:55;15.43;;;7.60;;
39344;SDS011;25061;51.954;6.996;2022-12-18T08:47:21;13.60;;;6.13;;
39344;SDS011;25061;51.954;6.996;2022-12-18T08:49:47;15.70;;;5.63;;
39344;SDS011;25061;51.954;6.996;2022-12-18T08:52:13;15.87;;;5.77;;
39344;SDS011;25061;51.954;6.996;2022-12-18T08:54:39;14.13;;;6.13;;
39344;SDS011;25061;51.954;6.996;2022-12-18T08:57:04;11.80;;;5.07;;
39344;SDS011;25061;51.954;6.996;2022-12-18T08:59:30;12.73;;;5.40;;
39344;SDS011;25061;51.954;6.996;2022-12-18T09:01:56;10.90;;;5.30;;
39344;SDS011;25061;51.954;6.996;2022-12-18T09:04:22;12.40;;;5.17;;
39344;SDS011;25061;51.954;6.996;2022-12-18T09:06:48;14.07;;;5.93;;
39344;SDS011;25061;51.954;6.996;2022-12-18T09:09:14;10.67;;;4.97;;
39344;SDS011;25061;51.954;6.996;2022-12-18T09:11:40;11.43;;;4.87;;
39344;SDS011;25061;51.954;6.996;2022-12-18T09:14:06;12.67;;;5.07;;
39344;SDS011;25061;51.954;6.996;2022-12-18T09:16:32;13.57;;;5.60;;
39344;SDS011;25061;51.954;6.996;2022-12-18T09:19:00;12.77;;;4.93;;
39344;SDS011;25061;51.954;6.996;2022-12-18T09:21:30;12.57;;;4.07;;
39344;SDS011;25061;51.954;6.996;2022-12-18T09:23:56;10.97;;;4.20;;
39344;SDS011;25061;51.954;6.996;2022-12-18T09:26:22;10.47;;;4.00;;
39344;SDS011;25061;51.954;6.996;2022-12-18T09:28:49;13.40;;;4.83;;
39344;SDS011;25061;51.954;6.996;2022-12-18T09:31:15;9.30;;;4.17;;
39344;SDS011;25061;51.954;6.996;2022-12-18T09:33:42;10.73;;;4.90;;
39344;SDS011;25061;51.954;6.996;2022-12-18T09:36:09;15.90;;;6.63;;
39344;SDS011;25061;51.954;6.996;2022-12-18T09:38:35;13.43;;;5.57;;
39344;SDS011;25061;51.954;6.996;2022-12-18T09:43:48;14.87;;;6.27;;
39344;SDS011;25061;51.954;6.996;2022-12-18T09:46:17;12.03;;;5.67;;
39344;SDS011;25061;51.954;6.996;2022-12-18T09:48:46;13.93;;;5.80;;
39344;SDS011;25061;51.954;6.996;2022-12-18T09:51:20;13.87;;;6.27;;
39344;SDS011;25061;51.954;6.996;2022-12-18T09:53:52;13.10;;;5.43;;
39344;SDS011;25061;51.954;6.996;2022-12-18T09:56:19;10.07;;;4.27;;
39344;SDS011;25061;51.954;6.996;2022-12-18T09:58:57;11.33;;;4.47;;
39344;SDS011;25061;51.954;6.996;2022-12-18T10:01:24;11.07;;;4.27;;
39344;SDS011;25061;51.954;6.996;2022-12-18T10:03:50;9.93;;;4.13;;
39344;SDS011;25061;51.954;6.996;2022-12-18T10:09:19;10.93;;;4.73;;
39344;SDS011;25061;51.954;6.996;2022-12-18T10:20:01;12.07;;;5.30;;
39344;SDS011;25061;51.954;6.996;2022-12-18T10:22:32;15.03;;;6.20;;
39344;SDS011;25061;51.954;6.996;2022-12-18T10:27:26;14.67;;;5.30;;
39344;SDS011;25061;51.954;6.996;2022-12-18T10:29:53;11.57;;;4.30;;
39344;SDS011;25061;51.954;6.996;2022-12-18T10:32:23;12.80;;;5.03;;
39344;SDS011;25061;51.954;6.996;2022-12-18T10:34:52;11.83;;;4.90;;
39344;SDS011;25061;51.954;6.996;2022-12-18T10:37:19;11.30;;;4.80;;
39344;SDS011;25061;51.954;6.996;2022-12-18T10:42:30;25.90;;;9.03;;
39344;SDS011;25061;51.954;6.996;2022-12-18T10:45:15;22.10;;;8.50;;
39344;SDS011;25061;51.954;6.996;2022-12-18T10:47:49;89.70;;;22.10;;
39344;SDS011;25061;51.954;6.996;2022-12-18T10:50:19;75.37;;;17.80;;
39344;SDS011;25061;51.954;6.996;2022-12-18T10:52:52;11.07;;;4.37;;
39344;SDS011;25061;51.954;6.996;2022-12-18T10:57:44;9.77;;;4.10;;
39344;SDS011;25061;51.954;6.996;2022-12-18T11:00:29;13.23;;;5.27;;
39344;SDS011;25061;51.954;6.996;2022-12-18T11:02:55;11.33;;;4.67;;
39344;SDS011;25061;51.954;6.996;2022-12-18T11:05:43;11.30;;;4.43;;
39344;SDS011;25061;51.954;6.996;2022-12-18T11:08:11;11.70;;;4.47;;
39344;SDS011;25061;51.954;6.996;2022-12-18T11:10:46;25.97;;;7.37;;
39344;SDS011;25061;51.954;6.996;2022-12-18T11:13:15;15.80;;;5.90;;
39344;SDS011;25061;51.954;6.996;2022-12-18T11:15:42;11.97;;;4.50;;
39344;SDS011;25061;51.954;6.996;2022-12-18T11:18:15;17.47;;;7.57;;
39344;SDS011;25061;51.954;6.996;2022-12-18T11:20:42;14.50;;;5.80;;
39344;SDS011;25061;51.954;6.996;2022-12-18T11:23:11;16.30;;;6.27;;
39344;SDS011;25061;51.954;6.996;2022-12-18T11:25:38;12.10;;;4.70;;
39344;SDS011;25061;51.954;6.996;2022-12-18T11:30:49;14.37;;;7.37;;
39344;SDS011;25061;51.954;6.996;2022-12-18T11:33:33;12.70;;;5.03;;
39344;SDS011;25061;51.954;6.996;2022-12-18T11:36:00;13.30;;;4.87;;
39344;SDS011;25061;51.954;6.996;2022-12-18T11:38:38;14.57;;;6.43;;
39344;SDS011;25061;51.954;6.996;2022-12-18T11:43:32;13.00;;;5.33;;
39344;SDS011;25061;51.954;6.996;2022-12-18T11:48:29;11.70;;;4.83;;
39344;SDS011;25061;51.954;6.996;2022-12-18T11:50:57;11.37;;;4.13;;
39344;SDS011;25061;51.954;6.996;2022-12-18T11:53:25;9.30;;;3.90;;
39344;SDS011;25061;51.954;6.996;2022-12-18T11:56:02;10.13;;;3.90;;
39344;SDS011;25061;51.954;6.996;2022-12-18T12:01:13;9.10;;;3.80;;
39344;SDS011;25061;51.954;6.996;2022-12-18T12:16:38;10.17;;;4.37;;
39344;SDS011;25061;51.954;6.996;2022-12-18T12:34:33;8.65;;;3.63;;
39344;SDS011;25061;51.954;6.996;2022-12-18T12:39:34;11.00;;;4.20;;
39344;SDS011;25061;51.954;6.996;2022-12-18T12:42:01;11.23;;;4.50;;
39344;SDS011;25061;51.954;6.996;2022-12-18T12:44:49;10.63;;;4.47;;
39344;SDS011;25061;51.954;6.996;2022-12-18T12:47:22;9.93;;;4.03;;
39344;SDS011;25061;51.954;6.996;2022-12-18T12:49:51;9.77;;;4.50;;
39344;SDS011;25061;51.954;6.996;2022-12-18T12:52:20;11.05;;;5.03;;
39344;SDS011;25061;51.954;6.996;2022-12-18T12:54:48;10.27;;;3.95;;
39344;SDS011;25061;51.954;6.996;2022-12-18T12:57:30;10.93;;;4.25;;
39344;SDS011;25061;51.954;6.996;2022-12-18T13:00:07;10.60;;;4.30;;
39344;SDS011;25061;51.954;6.996;2022-12-18T13:08:11;10.23;;;4.70;;
39344;SDS011;25061;51.954;6.996;2022-12-18T13:10:38;10.47;;;4.27;;
39344;SDS011;25061;51.954;6.996;2022-12-18T13:16:04;10.90;;;3.67;;
39344;SDS011;25061;51.954;6.996;2022-12-18T13:18:23;9.98;;;4.05;;
39344;SDS011;25061;51.954;6.996;2022-12-18T13:20:50;11.85;;;4.28;;
39344;SDS011;25061;51.954;6.996;2022-12-18T13:25:55;8.60;;;3.35;;
39344;SDS011;25061;51.954;6.996;2022-12-18T13:31:06;8.23;;;3.00;;
39344;SDS011;25061;51.954;6.996;2022-12-18T13:33:40;9.45;;;3.10;;
39344;SDS011;25061;51.954;6.996;2022-12-18T13:38:36;11.03;;;3.87;;
39344;SDS011;25061;51.954;6.996;2022-12-18T13:41:04;11.77;;;3.90;;
39344;SDS011;25061;51.954;6.996;2022-12-18T13:43:49;10.13;;;4.00;;
39344;SDS011;25061;51.954;6.996;2022-12-18T13:46:22;14.30;;;5.22;;
39344;SDS011;25061;51.954;6.996;2022-12-18T13:48:59;11.47;;;3.97;;
39344;SDS011;25061;51.954;6.996;2022-12-18T13:51:26;11.40;;;4.47;;
39344;SDS011;25061;51.954;6.996;2022-12-18T13:56:32;9.40;;;3.57;;
39344;SDS011;25061;51.954;6.996;2022-12-18T14:01:41;12.00;;;4.23;;
39344;SDS011;25061;51.954;6.996;2022-12-18T14:04:11;8.93;;;3.72;;
39344;SDS011;25061;51.954;6.996;2022-12-18T14:06:37;11.50;;;4.60;;
39344;SDS011;25061;51.954;6.996;2022-12-18T14:09:03;10.15;;;4.28;;
39344;SDS011;25061;51.954;6.996;2022-12-18T14:11:29;9.77;;;4.13;;
39344;SDS011;25061;51.954;6.996;2022-12-18T14:13:55;11.13;;;4.77;;
39344;SDS011;25061;51.954;6.996;2022-12-18T14:16:22;12.33;;;5.13;;
39344;SDS011;25061;51.954;6.996;2022-12-18T14:18:50;9.23;;;4.17;;
39344;SDS011;25061;51.954;6.996;2022-12-18T14:26:33;12.20;;;4.53;;
39344;SDS011;25061;51.954;6.996;2022-12-18T14:29:00;10.80;;;4.20;;
39344;SDS011;25061;51.954;6.996;2022-12-18T14:31:42;10.87;;;4.03;;
39344;SDS011;25061;51.954;6.996;2022-12-18T14:34:14;11.20;;;4.83;;
39344;SDS011;25061;51.954;6.996;2022-12-18T14:36:51;12.27;;;4.70;;
39344;SDS011;25061;51.954;6.996;2022-12-18T14:39:18;12.03;;;4.90;;
39344;SDS011;25061;51.954;6.996;2022-12-18T14:41:43;10.33;;;4.27;;
39344;SDS011;25061;51.954;6.996;2022-12-18T14:44:10;10.93;;;4.70;;
39344;SDS011;25061;51.954;6.996;2022-12-18T14:46:47;10.67;;;4.50;;
39344;SDS011;25061;51.954;6.996;2022-12-18T14:51:49;9.30;;;4.03;;
39344;SDS011;25061;51.954;6.996;2022-12-18T14:54:18;9.75;;;3.95;;
39344;SDS011;25061;51.954;6.996;2022-12-18T14:56:59;10.47;;;3.97;;
39344;SDS011;25061;51.954;6.996;2022-12-18T15:04:38;11.07;;;4.07;;
39344;SDS011;25061;51.954;6.996;2022-12-18T15:07:16;9.57;;;4.57;;
39344;SDS011;25061;51.954;6.996;2022-12-18T15:09:44;9.40;;;4.20;;
39344;SDS011;25061;51.954;6.996;2022-12-18T15:12:35;11.27;;;4.37;;
39344;SDS011;25061;51.954;6.996;2022-12-18T15:15:04;9.73;;;3.55;;
39344;SDS011;25061;51.954;6.996;2022-12-18T15:17:56;12.67;;;5.23;;
39344;SDS011;25061;51.954;6.996;2022-12-18T15:20:22;10.53;;;4.23;;
39344;SDS011;25061;51.954;6.996;2022-12-18T15:22:48;12.43;;;5.00;;
39344;SDS011;25061;51.954;6.996;2022-12-18T15:25:34;12.57;;;5.03;;
39344;SDS011;25061;51.954;6.996;2022-12-18T15:28:01;11.00;;;5.13;;
39344;SDS011;25061;51.954;6.996;2022-12-18T15:30:27;11.30;;;4.40;;
39344;SDS011;25061;51.954;6.996;2022-12-18T15:33:16;15.17;;;5.40;;
39344;SDS011;25061;51.954;6.996;2022-12-18T15:36:02;13.07;;;4.97;;
39344;SDS011;25061;51.954;6.996;2022-12-18T15:38:29;11.10;;;5.00;;
39344;SDS011;25061;51.954;6.996;2022-12-18T15:40:55;14.50;;;5.60;;
39344;SDS011;25061;51.954;6.996;2022-12-18T15:43:22;13.80;;;5.97;;
39344;SDS011;25061;51.954;6.996;2022-12-18T15:46:02;12.33;;;5.27;;
39344;SDS011;25061;51.954;6.996;2022-12-18T15:48:30;13.73;;;5.37;;
39344;SDS011;25061;51.954;6.996;2022-12-18T15:50:59;10.67;;;5.00;;
39344;SDS011;25061;51.954;6.996;2022-12-18T15:53:25;12.50;;;5.10;;
39344;SDS011;25061;51.954;6.996;2022-12-18T15:55:55;11.63;;;5.23;;
39344;SDS011;25061;51.954;6.996;2022-12-18T15:58:52;10.83;;;5.13;;
39344;SDS011;25061;51.954;6.996;2022-12-18T16:01:18;13.77;;;5.10;;
39344;SDS011;25061;51.954;6.996;2022-12-18T16:03:45;11.57;;;5.13;;
39344;SDS011;25061;51.954;6.996;2022-12-18T16:06:11;13.23;;;5.97;;
39344;SDS011;25061;51.954;6.996;2022-12-18T16:08:36;13.47;;;4.93;;
39344;SDS011;25061;51.954;6.996;2022-12-18T16:11:02;14.60;;;5.40;;
39344;SDS011;25061;51.954;6.996;2022-12-18T16:13:27;11.20;;;4.70;;
39344;SDS011;25061;51.954;6.996;2022-12-18T16:15:53;11.90;;;5.30;;
39344;SDS011;25061;51.954;6.996;2022-12-18T16:18:18;11.40;;;5.73;;
39344;SDS011;25061;51.954;6.996;2022-12-18T16:20:44;14.93;;;6.40;;
39344;SDS011;25061;51.954;6.996;2022-12-18T16:23:10;14.30;;;6.37;;
39344;SDS011;25061;51.954;6.996;2022-12-18T16:25:36;12.65;;;5.32;;
39344;SDS011;25061;51.954;6.996;2022-12-18T16:28:01;14.77;;;6.17;;
39344;SDS011;25061;51.954;6.996;2022-12-18T16:30:28;14.88;;;6.53;;
39344;SDS011;25061;51.954;6.996;2022-12-18T16:32:55;15.23;;;6.77;;
39344;SDS011;25061;51.954;6.996;2022-12-18T16:35:21;21.30;;;10.70;;
39344;SDS011;25061;51.954;6.996;2022-12-18T16:37:47;22.20;;;8.75;;
39344;SDS011;25061;51.954;6.996;2022-12-18T16:40:14;14.32;;;6.45;;